Time;durP1;ratioP1;P1;durP2;ratioP2;P2;SDS_P1;SDS_P2;PMS_P1;PMS_P2;Temp;Humidity;BMP_temperature;BMP_pressure;BME280_temperature;BME280_humidity;BME280_pressure;Samples;Min_cycle;Max_cycle;Signal;HPM_P1;HPM_P2
2023/12/01 00:01:10;;;;;;;19.10;9.00;;;;;;;7.88;51.53;100151.61;106212;1260;60561;-84
2023/12/01 00:03:44;;;;;;;19.50;7.50;;;;;;;7.86;51.64;100136.27;106723;1254;60514;-81
2023/12/01 00:06:16;;;;;;;15.70;7.00;;;;;;;7.85;51.78;100121.31;106680;1259;73933;-81
2023/12/01 00:08:50;;;;;;;17.90;8.50;;;;;;;7.85;51.93;100117.02;106642;1253;67350;-84
2023/12/01 00:11:24;;;;;;;21.10;8.30;;;;;;;7.82;51.87;100100.95;106417;1259;72661;-81
2023/12/01 00:13:52;;;;;;;18.10;7.80;;;;;;;7.78;52.22;100095.62;106223;1260;60555;-84
2023/12/01 00:16:26;;;;;;;19.20;8.60;;;;;;;7.75;52.05;100101.10;106434;1258;60362;-83
2023/12/01 00:19:00;;;;;;;17.80;7.20;;;;;;;7.75;52.08;100103.39;106300;1261;72635;-81
2023/12/01 00:21:34;;;;;;;14.60;6.60;;;;;;;7.78;51.95;100102.95;106521;1258;67431;-81
2023/12/01 00:24:08;;;;;;;14.80;7.30;;;;;;;7.78;52.11;100116.67;107031;1260;72674;-84
2023/12/01 00:26:43;;;;;;;17.80;7.20;;;;;;;7.76;52.06;100129.17;106509;1259;60479;-84
2023/12/01 00:29:12;;;;;;;18.00;8.40;;;;;;;7.65;52.22;100131.88;106570;1260;60682;-84
2023/12/01 00:31:45;;;;;;;15.40;6.40;;;;;;;7.65;52.05;100113.15;106229;1253;73889;-81
2023/12/01 00:34:20;;;;;;;16.50;7.30;;;;;;;7.57;52.53;100100.52;106273;1260;67250;-81
2023/12/01 00:36:55;;;;;;;13.90;6.70;;;;;;;7.59;52.47;100090.46;106457;1260;72640;-81
2023/12/01 00:39:23;;;;;;;12.60;6.30;;;;;;;7.69;52.24;100074.87;106693;1254;61872;-81
2023/12/01 00:41:51;;;;;;;16.90;7.40;;;;;;;7.71;52.11;100052.42;106606;1259;60377;-81
2023/12/01 00:44:25;;;;;;;14.90;6.40;;;;;;;7.69;52.16;100048.05;106196;1253;76089;-84
2023/12/01 00:46:54;;;;;;;19.40;7.00;;;;;;;7.78;51.76;100047.25;106792;1253;67572;-81
2023/12/01 00:49:31;;;;;;;18.00;6.40;;;;;;;7.88;51.56;100050.09;106679;1260;71401;-84
2023/12/01 00:52:05;;;;;;;15.70;7.20;;;;;;;8.00;51.57;100029.75;106371;1259;60446;-84
2023/12/01 00:54:33;;;;;;;17.80;7.00;;;;;;;7.91;51.63;100034.80;106251;1267;60479;-84
2023/12/01 00:57:07;;;;;;;16.60;6.50;;;;;;;7.84;51.81;100021.63;106506;1257;73927;-80
2023/12/01 00:59:40;;;;;;;16.50;7.10;;;;;;;7.82;51.78;100007.39;106595;1254;67257;-83
2023/12/01 01:02:11;;;;;;;14.40;6.80;;;;;;;7.86;51.84;99996.83;106420;1253;72655;-83
2023/12/01 01:04:42;;;;;;;10.40;5.40;;;;;;;7.91;51.86;99979.14;105988;1258;60506;-84
2023/12/01 01:07:10;;;;;;;12.20;6.20;;;;;;;7.87;51.88;99978.32;106790;1255;60345;-84
2023/12/01 01:09:40;;;;;;;12.70;6.50;;;;;;;7.79;52.22;99993.55;106401;1254;76934;-83
2023/12/01 01:12:13;;;;;;;14.50;6.90;;;;;;;7.83;52.41;99998.35;106249;1254;68949;-83
2023/12/01 01:14:40;;;;;;;18.00;7.00;;;;;;;7.84;52.36;99992.70;106620;1260;72705;-80
2023/12/01 01:17:10;;;;;;;10.70;5.10;;;;;;;7.86;52.37;99976.59;106615;1254;60908;-80
2023/12/01 01:19:44;;;;;;;11.80;5.60;;;;;;;7.79;52.76;99963.26;106311;1259;60738;-84
2023/12/01 01:22:37;;;;;;;13.00;6.20;;;;;;;7.77;52.86;99965.55;106653;1259;74009;-81
2023/12/01 01:25:05;;;;;;;11.60;5.50;;;;;;;7.82;53.08;99981.10;106662;1254;68866;-84
2023/12/01 01:27:36;;;;;;;11.30;5.50;;;;;;;7.83;53.22;99990.04;106618;1256;72715;-81
2023/12/01 01:30:11;;;;;;;13.80;6.10;;;;;;;7.74;53.71;99999.81;106385;1254;60947;-83
2023/12/01 01:32:39;;;;;;;9.70;5.40;;;;;;;7.79;53.71;100001.55;106211;1254;60552;-84
2023/12/01 01:35:07;;;;;;;10.50;5.20;;;;;;;7.78;53.88;99991.81;106524;1253;72540;-84
2023/12/01 01:37:35;;;;;;;9.80;5.60;;;;;;;7.69;54.38;99987.04;106465;1260;68333;-83
2023/12/01 01:40:13;;;;;;;10.40;5.10;;;;;;;7.71;54.76;99988.98;106532;1260;71113;-84
2023/12/01 01:42:41;;;;;;;8.10;5.00;;;;;;;7.87;54.59;99994.21;106982;1258;60831;-80
2023/12/01 01:45:09;;;;;;;10.40;5.40;;;;;;;7.98;54.58;99994.75;106239;1254;60313;-84
2023/12/01 01:47:37;;;;;;;10.60;5.20;;;;;;;8.12;54.28;99969.23;106291;1254;71598;-81
2023/12/01 01:50:11;;;;;;;12.70;5.60;;;;;;;8.18;54.26;99951.89;106545;1254;68629;-81
2023/12/01 01:52:39;;;;;;;11.10;4.80;;;;;;;8.21;54.44;99960.11;106445;1257;72723;-81
2023/12/01 01:55:08;;;;;;;10.80;5.20;;;;;;;8.27;54.49;99976.38;106308;1254;61013;-84
2023/12/01 01:57:44;;;;;;;8.40;5.20;;;;;;;8.36;54.45;99975.50;106302;1260;60493;-81
2023/12/01 02:00:16;;;;;;;11.80;6.20;;;;;;;8.38;54.48;99958.27;106998;1253;75478;-84
2023/12/01 02:02:47;;;;;;;10.20;5.10;;;;;;;8.43;54.58;99948.64;106521;1254;67574;-84
2023/12/01 02:05:15;;;;;;;20.00;8.00;;;;;;;8.35;54.77;99955.88;106394;1254;71827;-84
2023/12/01 02:07:49;;;;;;;20.40;9.30;;;;;;;8.33;55.20;99956.21;106523;1258;60898;-84
2023/12/01 02:10:17;;;;;;;19.30;8.00;;;;;;;8.32;55.44;99944.40;106518;1261;60539;-84
2023/12/01 02:12:51;;;;;;;19.50;9.70;;;;;;;8.23;55.66;99931.74;106348;1259;72950;-84
2023/12/01 02:15:19;;;;;;;20.40;9.10;;;;;;;8.22;55.96;99914.92;106359;1260;68470;-83
2023/12/01 02:17:47;;;;;;;21.10;10.30;;;;;;;8.20;56.05;99894.91;106459;1254;71114;-84
2023/12/01 02:20:21;;;;;;;17.50;8.70;;;;;;;8.24;56.20;99872.67;106129;1255;60889;-84
2023/12/01 02:22:55;;;;;;;21.00;9.40;;;;;;;8.28;56.19;99858.27;106761;1257;60397;-82
2023/12/01 02:25:29;;;;;;;23.60;10.00;;;;;;;8.32;56.15;99856.54;106613;1260;74303;-83
2023/12/01 02:28:03;;;;;;;20.50;9.10;;;;;;;8.36;56.33;99852.55;106337;1260;67286;-81
2023/12/01 02:30:37;;;;;;;19.70;8.70;;;;;;;8.44;56.19;99849.48;106435;1258;71520;-81
2023/12/01 02:33:17;;;;;;;14.80;7.30;;;;;;;8.46;56.45;99839.90;106589;1254;61384;-81
2023/12/01 02:35:52;;;;;;;17.90;8.80;;;;;;;8.85;55.47;99838.08;106308;1253;61342;-83
2023/12/01 02:38:25;;;;;;;16.60;8.40;;;;;;;8.60;56.15;99837.31;106527;1254;76119;-84
2023/12/01 02:40:53;;;;;;;19.20;8.20;;;;;;;8.64;56.55;99833.41;106764;1254;68386;-81
2023/12/01 02:43:27;;;;;;;19.10;8.40;;;;;;;8.44;57.56;99826.38;106397;1255;71475;-84
2023/12/01 02:46:00;;;;;;;17.80;8.40;;;;;;;8.36;58.53;99816.77;106458;1258;62039;-82
2023/12/01 02:48:34;;;;;;;15.00;7.20;;;;;;;8.41;59.08;99812.02;106296;1254;61340;-84
2023/12/01 02:51:08;;;;;;;20.80;9.00;;;;;;;8.18;60.38;99818.54;106504;1254;73384;-84
2023/12/01 02:53:36;;;;;;;14.50;7.40;;;;;;;8.28;61.18;99820.89;106569;1254;67382;-84
2023/12/01 02:56:13;;;;;;;21.60;8.50;;;;;;;8.29;61.87;99816.48;106351;1254;72654;-81
2023/12/01 02:58:47;;;;;;;16.40;7.90;;;;;;;8.33;62.24;99806.60;106106;1260;61236;-81
2023/12/01 03:01:15;;;;;;;17.80;8.20;;;;;;;8.42;62.52;99799.55;106568;1260;61253;-84
2023/12/01 03:03:44;;;;;;;20.90;9.00;;;;;;;8.35;63.45;99784.11;106685;1255;72771;-83
2023/12/01 03:06:18;;;;;;;16.40;8.00;;;;;;;8.25;64.69;99766.07;106396;1269;68313;-83
2023/12/01 03:08:46;;;;;;;18.10;8.30;;;;;;;8.13;66.19;99763.42;106499;1253;72789;-83
2023/12/01 03:11:14;;;;;;;15.80;7.90;;;;;;;8.12;67.04;99756.67;106419;1254;61321;-83
2023/12/01 03:13:41;;;;;;;17.10;7.50;;;;;;;8.14;67.83;99744.69;106374;1254;61365;-80
2023/12/01 03:16:12;;;;;;;20.70;8.90;;;;;;;8.22;67.61;99735.84;106499;1254;73471;-80
2023/12/01 03:18:40;;;;;;;19.40;8.30;;;;;;;8.14;68.78;99724.73;106695;1260;67399;-84
2023/12/01 03:21:12;;;;;;;17.90;8.90;;;;;;;8.30;68.74;99709.38;106897;1254;71627;-84
2023/12/01 03:23:45;;;;;;;17.80;8.60;;;;;;;8.53;67.65;99693.84;106121;1257;61317;-79
2023/12/01 03:26:20;;;;;;;17.60;8.60;;;;;;;8.68;66.93;99687.14;106636;1255;61273;-85
2023/12/01 03:28:48;;;;;;;17.70;7.70;;;;;;;8.79;66.87;99686.06;106663;1254;73401;-84
2023/12/01 03:31:15;;;;;;;17.60;8.00;;;;;;;8.82;66.87;99677.59;106466;1254;68438;-79
2023/12/01 03:33:43;;;;;;;15.50;7.80;;;;;;;8.87;66.89;99673.07;106227;1254;71343;-83
2023/12/01 03:36:17;;;;;;;17.10;8.20;;;;;;;8.87;67.18;99674.33;106399;1254;61346;-79
2023/12/01 03:38:45;;;;;;;16.60;7.50;;;;;;;8.88;67.82;99668.60;106489;1254;61241;-85
2023/12/01 03:41:12;;;;;;;16.50;7.80;;;;;;;9.04;67.18;99670.89;106608;1254;73362;-83
2023/12/01 03:43:40;;;;;;;15.70;7.70;;;;;;;9.10;67.01;99675.91;106541;1253;67343;-79
2023/12/01 03:46:08;;;;;;;17.20;7.50;;;;;;;9.13;66.80;99675.65;106593;1258;71454;-78
2023/12/01 03:48:36;;;;;;;13.40;7.40;;;;;;;9.39;65.71;99678.04;106472;1254;61326;-79
2023/12/01 03:51:11;;;;;;;15.40;7.50;;;;;;;9.33;65.96;99672.34;106170;1260;61272;-79
2023/12/01 03:53:44;;;;;;;17.10;7.80;;;;;;;9.22;66.73;99671.98;106549;1255;72425;-78
2023/12/01 03:56:14;;;;;;;17.20;8.60;;;;;;;9.31;66.76;99667.78;106641;1254;69075;-83
2023/12/01 03:58:43;;;;;;;16.50;9.00;;;;;;;9.40;66.16;99664.79;106411;1254;72461;-78
2023/12/01 04:01:12;;;;;;;14.40;7.60;;;;;;;9.43;66.27;99661.42;106316;1257;61429;-78
2023/12/01 04:03:46;;;;;;;14.80;7.80;;;;;;;9.52;66.09;99662.13;106636;1254;61420;-77
2023/12/01 04:06:17;;;;;;;17.30;7.80;;;;;;;9.75;65.01;99656.59;106051;1259;73498;-83
2023/12/01 04:08:46;;;;;;;16.80;8.00;;;;;;;9.80;64.86;99644.97;106090;1259;68296;-84
2023/12/01 04:11:20;;;;;;;13.20;6.90;;;;;;;9.71;65.39;99640.11;105983;1257;71494;-78
2023/12/01 04:13:47;;;;;;;13.00;7.00;;;;;;;9.59;66.36;99633.23;105860;1254;61284;-84
2023/12/01 04:16:17;;;;;;;14.00;7.60;;;;;;;9.45;67.25;99635.97;106671;1254;61135;-85
2023/12/01 04:18:53;;;;;;;16.30;7.20;;;;;;;9.31;68.30;99627.84;105885;1254;73657;-78
2023/12/01 04:21:21;;;;;;;16.30;8.50;;;;;;;9.32;68.60;99611.32;105988;1258;67169;-78
2023/12/01 04:23:52;;;;;;;17.70;8.60;;;;;;;9.29;68.81;99602.59;105875;1258;71486;-78
2023/12/01 04:26:20;;;;;;;15.90;8.70;;;;;;;9.20;69.15;99596.53;105960;1259;61375;-84
2023/12/01 04:28:53;;;;;;;16.90;9.00;;;;;;;9.34;68.44;99589.86;105972;1254;61289;-77
2023/12/01 04:31:27;;;;;;;18.00;9.10;;;;;;;9.38;68.15;99585.23;105852;1259;74653;-77
2023/12/01 04:33:55;;;;;;;21.90;10.90;;;;;;;9.29;68.84;99577.00;106259;1254;68080;-77
2023/12/01 04:36:24;;;;;;;20.90;9.90;;;;;;;9.30;69.39;99567.02;105971;1259;72725;-83
2023/12/01 04:39:00;;;;;;;21.40;8.80;;;;;;;9.47;68.51;99556.48;105962;1259;61346;-78
2023/12/01 04:41:27;;;;;;;14.00;7.90;;;;;;;9.48;68.75;99537.55;105854;1254;61382;-78
2023/12/01 04:43:56;;;;;;;18.60;8.90;;;;;;;9.72;67.71;99522.52;106015;1254;73785;-78
2023/12/01 04:46:32;;;;;;;16.10;8.30;;;;;;;9.69;67.96;99516.52;105997;1254;68588;-78
2023/12/01 04:49:08;;;;;;;12.70;6.10;;;;;;;9.59;69.27;99511.86;105800;1257;73166;-84
2023/12/01 04:51:36;;;;;;;9.10;5.70;;;;;;;9.26;73.15;99499.89;106058;1257;61961;-82
2023/12/01 04:54:06;;;;;;;10.10;5.10;;;;;;;9.23;75.35;99500.77;105893;1253;61189;-84
2023/12/01 04:56:42;;;;;;;9.40;5.10;;;;;;;9.30;76.83;99490.30;105913;1259;74752;-84
2023/12/01 04:59:16;;;;;;;8.20;4.90;;;;;;;9.44;77.09;99484.70;106003;1259;67464;-78
2023/12/01 05:01:44;;;;;;;9.30;4.30;;;;;;;9.55;77.07;99478.53;105889;1260;71513;-83
2023/12/01 05:04:14;;;;;;;7.40;4.00;;;;;;;9.55;77.79;99467.42;105906;1260;61129;-78
2023/12/01 05:09:43;;;;;;;7.70;4.10;;;;;;;9.75;78.40;99470.70;105809;1258;74607;-78
2023/12/01 05:12:10;;;;;;;7.40;4.00;;;;;;;9.91;78.04;99471.02;106144;1254;68351;-82
2023/12/01 05:14:44;;;;;;;6.90;4.10;;;;;;;9.92;77.99;99464.08;105842;1254;72846;-78
2023/12/01 05:17:21;;;;;;;6.70;3.90;;;;;;;9.98;78.26;99458.26;105898;1257;61887;-78
2023/12/01 05:19:49;;;;;;;6.00;3.80;;;;;;;10.05;78.58;99458.25;106051;1254;61199;-84
2023/12/01 05:22:27;;;;;;;8.00;4.20;;;;;;;10.08;79.02;99460.64;106081;1259;74672;-84
2023/12/01 05:25:18;;;;;;;7.30;4.60;;;;;;;10.05;79.95;99472.39;106466;1254;68797;-84
2023/12/01 05:27:58;;;;;;;6.10;3.90;;;;;;;10.22;79.47;99475.09;106739;1254;72673;-84
2023/12/01 05:30:33;;;;;;;4.70;3.60;;;;;;;10.45;77.71;99463.98;106535;1254;61179;-79
2023/12/01 05:33:06;;;;;;;6.90;3.80;;;;;;;10.53;77.85;99471.86;106561;1259;61186;-79
2023/12/01 05:35:42;;;;;;;7.30;3.60;;;;;;;10.44;78.37;99471.64;106435;1259;73619;-79
2023/12/01 05:38:16;;;;;;;7.00;4.30;;;;;;;10.39;79.65;99481.03;106300;1254;67139;-79
2023/12/01 05:40:44;;;;;;;6.00;4.10;;;;;;;10.54;79.05;99476.41;106667;1254;74870;-84
2023/12/01 05:43:16;;;;;;;8.20;4.20;;;;;;;10.72;77.18;99473.40;106354;1254;61394;-79
2023/12/01 05:45:50;;;;;;;5.30;4.00;;;;;;;10.63;78.16;99481.55;106167;1259;61244;-83
2023/12/01 05:48:25;;;;;;;6.00;3.60;;;;;;;10.83;77.29;99481.82;106266;1254;73773;-84
2023/12/01 05:50:53;;;;;;;6.10;3.70;;;;;;;10.48;79.39;99484.90;106882;1253;67130;-84
2023/12/01 05:53:22;;;;;;;6.60;4.00;;;;;;;10.45;80.63;99482.34;106600;1254;72717;-84
2023/12/01 05:55:51;;;;;;;7.90;4.20;;;;;;;10.29;82.31;99481.91;106487;1256;61382;-84
2023/12/01 05:58:25;;;;;;;6.50;3.60;;;;;;;10.25;83.26;99486.32;106354;1253;61135;-79
2023/12/01 06:00:53;;;;;;;7.50;3.60;;;;;;;10.38;82.93;99470.94;106637;1254;72867;-79
2023/12/01 06:03:21;;;;;;;7.80;4.30;;;;;;;10.52;81.83;99469.63;106399;1254;67475;-79
2023/12/01 06:05:48;;;;;;;7.10;4.00;;;;;;;10.40;82.75;99486.15;106225;1257;72789;-79
2023/12/01 06:08:16;;;;;;;6.90;4.20;;;;;;;10.49;82.61;99488.23;106407;1254;61158;-84
2023/12/01 06:10:44;;;;;;;7.60;4.80;;;;;;;10.34;84.15;99488.98;106595;1254;61313;-79
2023/12/01 06:13:18;;;;;;;8.30;4.30;;;;;;;10.47;83.87;99472.04;106345;1254;73387;-78
2023/12/01 06:15:51;;;;;;;7.10;4.40;;;;;;;10.48;83.94;99459.49;105854;1254;67283;-79
2023/12/01 06:18:19;;;;;;;10.60;4.60;;;;;;;10.58;83.94;99453.63;106441;1253;71433;-79
2023/12/01 06:21:14;;;;;;;7.40;4.60;;;;;;;10.73;82.83;99463.92;106331;1254;59901;-83
2023/12/01 06:23:43;;;;;;;6.80;4.00;;;;;;;10.71;82.71;99458.83;106557;1254;61254;-85
2023/12/01 06:26:18;;;;;;;8.70;4.50;;;;;;;10.57;84.30;99441.85;106398;1259;75111;-79
2023/12/01 06:28:46;;;;;;;7.30;4.50;;;;;;;10.65;84.36;99448.35;106337;1254;68419;-79
2023/12/01 06:31:14;;;;;;;7.30;4.70;;;;;;;10.78;84.02;99454.86;106324;1256;72663;-79
2023/12/01 06:33:48;;;;;;;5.60;3.90;;;;;;;10.92;83.60;99451.30;106527;1253;61187;-80
2023/12/01 06:36:22;;;;;;;8.10;4.40;;;;;;;10.97;83.52;99439.92;106558;1253;61330;-80
2023/12/01 11:02:31;;;;;;;15.50;7.50;;;;;;;12.84;71.88;99432.48;106475;1254;71154;-79
2023/12/01 11:04:59;;;;;;;16.00;8.10;;;;;;;12.70;72.30;99423.19;106313;1254;61340;-78
2023/12/01 11:07:43;;;;;;;12.20;7.50;;;;;;;12.60;73.05;99412.67;106081;1259;61302;-78
2023/12/01 11:10:44;;;;;;;14.00;8.10;;;;;;;12.72;72.44;99410.19;106206;1254;73453;-80
2023/12/01 11:13:49;;;;;;;18.90;10.70;;;;;;;12.74;71.76;99415.23;105976;1259;67552;-79
2023/12/01 11:16:17;;;;;;;15.80;9.10;;;;;;;12.82;71.37;99405.60;106200;1254;72649;-80
2023/12/01 11:18:45;;;;;;;14.80;9.40;;;;;;;12.89;70.80;99408.77;106023;1256;61214;-79
2023/12/01 11:21:16;;;;;;;18.30;10.20;;;;;;;12.79;71.18;99409.47;106405;1253;61311;-83
2023/12/01 11:23:44;;;;;;;16.20;9.80;;;;;;;12.75;71.61;99403.19;106186;1254;75668;-83
2023/12/01 11:26:12;;;;;;;16.70;9.90;;;;;;;12.68;71.42;99404.64;106281;1254;68302;-83
2023/12/01 11:28:45;;;;;;;18.60;11.00;;;;;;;12.67;70.95;99411.70;106249;1253;71404;-83
2023/12/01 11:31:17;;;;;;;17.30;10.30;;;;;;;12.58;70.37;99428.95;106143;1259;61257;-82
2023/12/01 11:33:47;;;;;;;18.60;10.40;;;;;;;12.46;70.73;99433.01;106063;1254;62290;-83
2023/12/01 11:36:31;;;;;;;18.60;9.80;;;;;;;12.47;70.41;99425.30;106176;1256;73686;-83
2023/12/01 11:39:20;;;;;;;19.50;10.20;;;;;;;12.56;69.16;99422.05;106069;1253;71432;-83
2023/12/01 11:42:10;;;;;;;17.90;10.20;;;;;;;12.45;70.42;99429.64;106263;1254;72692;-82
2023/12/01 11:44:39;;;;;;;21.80;11.20;;;;;;;12.53;69.17;99434.19;106426;1254;61279;-83
2023/12/01 11:47:13;;;;;;;18.20;10.80;;;;;;;12.60;67.79;99450.20;106031;1256;61423;-82
2023/12/01 11:49:43;;;;;;;18.50;10.80;;;;;;;12.56;67.37;99450.27;106097;1259;74674;-83
2023/12/01 11:52:13;;;;;;;19.30;10.90;;;;;;;12.58;66.56;99450.75;106205;1259;69208;-83
2023/12/01 11:54:41;;;;;;;18.00;9.50;;;;;;;12.57;65.50;99449.59;106222;1254;70431;-83
2023/12/01 11:57:10;;;;;;;17.40;10.70;;;;;;;12.50;65.41;99459.96;106175;1255;61355;-83
2023/12/01 11:59:38;;;;;;;19.10;11.00;;;;;;;12.43;65.28;99473.88;106212;1256;61221;-83
2023/12/01 12:02:07;;;;;;;19.70;11.30;;;;;;;12.35;65.26;99467.39;106229;1253;74617;-83
2023/12/01 12:04:37;;;;;;;23.40;11.90;;;;;;;12.27;65.12;99469.02;106545;1254;67828;-83
2023/12/01 12:07:06;;;;;;;19.60;11.70;;;;;;;12.15;65.59;99473.23;106072;1260;74214;-83
2023/12/01 12:09:35;;;;;;;20.10;11.00;;;;;;;12.02;66.30;99468.95;106175;1254;61350;-83
2023/12/01 12:12:09;;;;;;;18.70;11.10;;;;;;;11.98;66.60;99473.48;106033;1254;61287;-83
2023/12/01 12:14:38;;;;;;;20.00;10.70;;;;;;;11.88;67.42;99476.80;106383;1253;75714;-83
2023/12/01 12:17:07;;;;;;;19.60;10.90;;;;;;;12.00;66.46;99471.02;106194;1253;68888;-83
2023/12/01 12:19:44;;;;;;;22.20;12.40;;;;;;;11.97;66.48;99475.77;106170;1257;74892;-81
2023/12/01 12:22:21;;;;;;;22.00;12.20;;;;;;;11.95;66.28;99492.52;106254;1254;61507;-82
2023/12/01 12:24:50;;;;;;;23.60;12.30;;;;;;;11.90;65.88;99491.04;106147;1253;61416;-78
2023/12/01 12:27:19;;;;;;;27.70;13.30;;;;;;;11.89;65.54;99485.42;106326;1253;73445;-79
2023/12/01 12:29:47;;;;;;;27.50;13.50;;;;;;;11.96;64.90;99489.42;106172;1260;67123;-80
2023/12/01 12:32:15;;;;;;;21.70;12.10;;;;;;;11.84;64.65;99492.69;106175;1256;71494;-78
2023/12/01 12:34:44;;;;;;;24.70;13.90;;;;;;;11.86;64.02;99495.46;106238;1254;61836;-79
2023/12/01 12:37:12;;;;;;;24.40;14.10;;;;;;;11.94;63.61;99500.03;106664;1254;61362;-79
2023/12/01 12:39:40;;;;;;;21.30;12.40;;;;;;;11.91;63.30;99506.12;106259;1254;75226;-79
2023/12/01 12:42:16;;;;;;;28.90;14.60;;;;;;;11.90;63.51;99511.63;106213;1259;67939;-79
2023/12/01 12:44:45;;;;;;;26.90;13.70;;;;;;;12.09;62.54;99514.84;106184;1254;72696;-79
2023/12/01 12:47:14;;;;;;;21.50;12.20;;;;;;;12.10;62.13;99521.59;106574;1257;61304;-79
2023/12/01 12:49:43;;;;;;;24.50;13.90;;;;;;;11.97;62.44;99535.77;106185;1253;61345;-79
2023/12/01 12:52:11;;;;;;;25.00;13.40;;;;;;;11.86;62.49;99553.41;105885;1261;74715;-79
2023/12/01 12:54:42;;;;;;;22.00;11.90;;;;;;;11.70;62.97;99559.31;106202;1260;68906;-79
2023/12/01 12:57:11;;;;;;;25.40;13.30;;;;;;;11.59;63.09;99559.55;106346;1256;74795;-79
2023/12/01 12:59:39;;;;;;;20.60;11.70;;;;;;;11.53;63.07;99560.61;106015;1256;61352;-79
2023/12/01 13:02:06;;;;;;;23.70;13.10;;;;;;;11.44;63.32;99562.17;106150;1254;60045;-79
2023/12/01 13:04:34;;;;;;;21.30;12.90;;;;;;;11.21;63.91;99562.98;106158;1254;76977;-79
2023/12/01 13:07:02;;;;;;;25.10;13.30;;;;;;;11.17;64.01;99564.44;106029;1254;70138;-80
2023/12/01 13:09:30;;;;;;;22.80;11.70;;;;;;;11.17;63.98;99561.05;106688;1254;72645;-79
2023/12/01 13:11:58;;;;;;;24.40;12.70;;;;;;;11.15;63.85;99567.05;106494;1253;61484;-79
2023/12/01 13:14:26;;;;;;;23.00;13.20;;;;;;;11.03;64.20;99572.75;106325;1254;61243;-79
2023/12/01 13:16:54;;;;;;;23.20;11.90;;;;;;;10.93;64.72;99574.48;106201;1254;75364;-79
2023/12/01 13:19:24;;;;;;;25.20;13.90;;;;;;;10.93;64.89;99576.17;106395;1259;66968;-79
2023/12/01 13:21:53;;;;;;;20.50;12.40;;;;;;;10.93;65.04;99573.27;106239;1257;75359;-80
2023/12/01 13:24:24;;;;;;;24.80;13.20;;;;;;;10.99;64.56;99564.70;106191;1257;61314;-78
2023/12/01 13:26:54;;;;;;;24.00;13.00;;;;;;;10.96;64.40;99576.66;106142;1254;61263;-79
2023/12/01 13:29:23;;;;;;;25.10;12.20;;;;;;;10.88;64.68;99591.91;106252;1254;77121;-79
2023/12/01 13:31:50;;;;;;;24.70;14.10;;;;;;;10.93;64.26;99584.98;106232;1254;68567;-79
2023/12/01 13:34:19;;;;;;;24.10;12.60;;;;;;;11.00;63.71;99590.64;106278;1256;73312;-79
2023/12/01 13:36:48;;;;;;;27.20;13.70;;;;;;;11.02;63.52;99592.39;106095;1255;61313;-79
2023/12/01 13:39:16;;;;;;;27.10;14.00;;;;;;;10.95;63.56;99598.23;105995;1259;61253;-79
2023/12/01 13:41:45;;;;;;;25.60;14.00;;;;;;;10.72;64.48;99612.36;106458;1254;74845;-79
2023/12/01 13:44:13;;;;;;;24.10;13.50;;;;;;;10.72;65.03;99620.18;106106;1260;67100;-79
2023/12/01 13:46:42;;;;;;;26.60;14.80;;;;;;;11.33;62.36;99618.56;106129;1257;73100;-79
2023/12/01 13:49:11;;;;;;;27.30;14.40;;;;;;;11.43;61.30;99637.89;106058;1258;63359;-80
2023/12/01 13:51:39;;;;;;;30.00;16.30;;;;;;;11.60;60.13;99657.65;106742;1254;61208;-80
2023/12/01 13:54:10;;;;;;;29.90;15.00;;;;;;;11.69;59.52;99650.59;106258;1259;75041;-80
2023/12/01 13:56:38;;;;;;;27.90;14.80;;;;;;;11.59;59.49;99654.06;106281;1253;68885;-80
2023/12/01 13:59:07;;;;;;;28.40;15.10;;;;;;;11.61;59.63;99645.48;106166;1257;72802;-80
2023/12/01 14:01:35;;;;;;;33.20;16.10;;;;;;;11.76;58.80;99643.70;106684;1257;61323;-80
2023/12/01 14:04:04;;;;;;;30.00;16.80;;;;;;;11.76;58.43;99652.30;106168;1254;61343;-79
2023/12/01 14:06:32;;;;;;;36.50;20.40;;;;;;;11.82;58.02;99658.23;106203;1253;76925;-79
2023/12/01 14:09:01;;;;;;;29.70;16.30;;;;;;;11.84;57.84;99666.91;105999;1253;67297;-79
2023/12/01 14:11:28;;;;;;;29.10;15.80;;;;;;;11.75;58.09;99665.08;106237;1257;73926;-79
2023/12/01 14:13:56;;;;;;;29.70;16.20;;;;;;;11.64;58.38;99666.00;106281;1258;61259;-79
2023/12/01 14:16:24;;;;;;;27.20;15.40;;;;;;;11.63;58.41;99663.17;106287;1259;61245;-79
2023/12/01 14:18:53;;;;;;;29.70;15.70;;;;;;;11.49;58.84;99657.33;106129;1254;75615;-79
2023/12/01 14:21:21;;;;;;;28.90;15.80;;;;;;;11.50;59.05;99664.02;106361;1254;67627;-79
2023/12/01 14:23:49;;;;;;;29.30;15.60;;;;;;;11.51;58.75;99661.06;106179;1257;74827;-79
2023/12/01 14:26:17;;;;;;;28.70;15.70;;;;;;;11.47;58.74;99651.95;106123;1259;61827;-80
2023/12/01 14:28:46;;;;;;;34.70;18.20;;;;;;;11.41;59.06;99655.75;106020;1254;61260;-80
2023/12/01 14:31:14;;;;;;;33.50;18.40;;;;;;;11.50;58.80;99665.63;106650;1253;74978;-80
2023/12/01 14:33:42;;;;;;;30.50;17.90;;;;;;;11.47;58.92;99667.15;106169;1254;70957;-80
2023/12/01 14:36:10;;;;;;;44.40;23.20;;;;;;;11.41;59.16;99667.40;106221;1256;71827;-80
2023/12/01 14:38:38;;;;;;;35.50;18.70;;;;;;;11.55;58.60;99678.82;106154;1254;61374;-80
2023/12/01 14:41:07;;;;;;;32.40;17.50;;;;;;;11.39;58.66;99685.27;106545;1254;61206;-80
2023/12/01 14:43:35;;;;;;;32.70;17.40;;;;;;;11.54;58.62;99683.99;106085;1254;76807;-80
2023/12/01 14:46:03;;;;;;;31.90;17.40;;;;;;;11.71;57.75;99676.14;106289;1253;67454;-80
2023/12/01 14:48:34;;;;;;;29.10;16.60;;;;;;;11.86;56.88;99667.52;106209;1257;72703;-80
2023/12/01 14:51:02;;;;;;;32.20;16.10;;;;;;;12.05;56.23;99662.38;106131;1259;61237;-80
2023/12/01 14:53:30;;;;;;;32.70;17.20;;;;;;;11.25;58.05;99672.95;106518;1259;61235;-83
2023/12/01 14:55:58;;;;;;;28.20;16.30;;;;;;;10.44;62.16;99672.49;106261;1258;75118;-83
2023/12/01 14:58:26;;;;;;;37.00;19.50;;;;;;;10.27;64.23;99659.27;106242;1259;70927;-82
2023/12/01 15:00:54;;;;;;;37.60;20.70;;;;;;;10.14;65.23;99672.33;106236;1253;71479;-83
2023/12/01 15:03:21;;;;;;;42.20;23.20;;;;;;;10.22;65.17;99679.36;106539;1254;63221;-83
2023/12/01 15:05:49;;;;;;;43.30;23.30;;;;;;;10.15;65.15;99671.94;106237;1254;61283;-83
2023/12/01 15:08:17;;;;;;;42.70;22.50;;;;;;;10.07;65.96;99670.02;106027;1254;76809;-83
2023/12/01 15:10:45;;;;;;;47.40;25.40;;;;;;;10.44;64.13;99674.14;106198;1259;68307;-83
2023/12/01 15:13:12;;;;;;;48.00;25.50;;;;;;;10.28;64.71;99673.66;107020;1255;75030;-81
2023/12/01 15:15:40;;;;;;;44.50;25.70;;;;;;;10.03;66.38;99670.29;106134;1258;61235;-81
2023/12/01 15:18:08;;;;;;;42.30;22.70;;;;;;;9.98;67.14;99660.49;106156;1253;61246;-81
2023/12/01 15:20:36;;;;;;;40.50;20.80;;;;;;;10.02;66.97;99655.14;106201;1254;74649;-82
2023/12/01 15:23:04;;;;;;;37.50;20.70;;;;;;;10.18;66.23;99674.66;106447;1254;71017;-81
2023/12/01 15:25:32;;;;;;;35.40;19.70;;;;;;;10.11;66.78;99686.58;106299;1253;72742;-82
2023/12/01 15:28:00;;;;;;;40.70;21.10;;;;;;;10.16;66.45;99691.99;106203;1259;61432;-81
2023/12/01 15:30:28;;;;;;;56.40;27.40;;;;;;;10.15;66.46;99694.48;106199;1254;61414;-81
2023/12/01 15:32:56;;;;;;;53.60;29.40;;;;;;;10.21;66.12;99700.95;106241;1253;75625;-81
2023/12/01 15:35:24;;;;;;;53.80;28.60;;;;;;;10.33;65.43;99701.34;106217;1259;67436;-81
2023/12/01 15:37:51;;;;;;;44.60;24.30;;;;;;;10.32;65.33;99705.45;106149;1257;73179;-81
2023/12/01 15:40:19;;;;;;;44.40;24.20;;;;;;;10.27;65.79;99705.61;106150;1254;61249;-81
2023/12/01 15:42:47;;;;;;;44.40;22.90;;;;;;;10.49;64.72;99707.55;106368;1254;61138;-82
2023/12/01 15:45:15;;;;;;;39.30;21.50;;;;;;;10.51;64.36;99715.06;106852;1255;75082;-82
2023/12/01 15:47:43;;;;;;;38.40;22.00;;;;;;;10.18;66.10;99715.29;106358;1258;71248;-81
2023/12/01 15:50:11;;;;;;;41.00;24.00;;;;;;;10.17;66.63;99708.54;106374;1258;75150;-81
2023/12/01 15:52:39;;;;;;;40.80;23.40;;;;;;;10.15;66.77;99706.20;106188;1259;61343;-81
2023/12/01 15:55:07;;;;;;;39.40;22.40;;;;;;;10.25;66.34;99703.35;106666;1254;61696;-82
2023/12/01 15:57:35;;;;;;;43.00;23.90;;;;;;;10.29;66.03;99697.34;106353;1258;74502;-81
2023/12/01 16:00:04;;;;;;;41.10;22.50;;;;;;;10.32;65.85;99705.05;106354;1254;69796;-81